Time;durP1;ratioP1;P1;durP2;ratioP2;P2;SDS_P1;SDS_P2;PMS_P1;PMS_P2;Temp;Humidity;BMP_temperature;BMP_pressure;BME280_temperature;BME280_humidity;BME280_pressure;Samples;Min_cycle;Max_cycle;Signal;HPM_P1;HPM_P2
2022/10/21 00:01:59;;;;;;;7.40;5.10;;;;;;;5.41;79.43;97198.73;105120;1288;26566;-76
2022/10/21 00:04:31;;;;;;;7.40;5.20;;;;;;;5.41;79.40;97199.99;105128;1308;22466;-77
2022/10/21 00:07:02;;;;;;;8.20;5.50;;;;;;;5.38;79.46;97194.11;105046;1306;25601;-76
2022/10/21 00:09:34;;;;;;;9.10;5.00;;;;;;;5.31;79.47;97199.73;105119;1294;22538;-76
2022/10/21 00:12:05;;;;;;;7.90;5.40;;;;;;;5.28;79.63;97209.65;105094;1295;22474;-76
2022/10/21 00:14:36;;;;;;;7.40;4.80;;;;;;;5.28;79.69;97205.60;105131;1310;22450;-76
2022/10/21 00:17:07;;;;;;;6.90;4.00;;;;;;;5.29;79.56;97203.75;105056;1299;22475;-76
2022/10/21 00:19:39;;;;;;;8.00;4.60;;;;;;;5.29;79.58;97207.48;105161;1303;25234;-76
2022/10/21 00:22:10;;;;;;;8.00;5.50;;;;;;;5.24;79.51;97203.48;105096;1294;22477;-76
2022/10/21 00:24:41;;;;;;;6.10;4.40;;;;;;;5.19;79.43;97198.89;105099;1311;23832;-76
2022/10/21 00:27:12;;;;;;;8.00;5.00;;;;;;;5.13;79.45;97201.81;105062;1297;24113;-76
2022/10/21 00:29:44;;;;;;;7.00;5.20;;;;;;;5.10;79.47;97198.11;105126;1303;22466;-76
2022/10/21 00:32:15;;;;;;;8.00;5.50;;;;;;;5.04;79.56;97195.48;105112;1311;22533;-76
2022/10/21 00:34:47;;;;;;;8.00;5.20;;;;;;;5.01;79.78;97191.79;105153;1294;22464;-76
2022/10/21 00:37:18;;;;;;;9.20;5.60;;;;;;;5.00;79.85;97188.62;105152;1295;22504;-76
2022/10/21 00:39:49;;;;;;;8.50;4.10;;;;;;;4.99;79.82;97180.15;105168;1301;22659;-76
2022/10/21 00:42:22;;;;;;;8.20;5.60;;;;;;;4.96;79.99;97169.16;105179;1299;25219;-76
2022/10/21 00:45:20;;;;;;;9.40;5.80;;;;;;;4.94;80.18;97165.65;105195;1304;22493;-76
2022/10/21 00:47:56;;;;;;;6.80;5.20;;;;;;;4.94;80.34;97157.61;105178;1288;22466;-76
2022/10/21 00:50:32;;;;;;;7.30;5.40;;;;;;;4.91;80.24;97149.48;105193;1304;24285;-76
2022/10/21 00:53:04;;;;;;;8.80;5.10;;;;;;;4.90;80.63;97147.55;105207;1303;24493;-76
2022/10/21 00:55:41;;;;;;;7.90;5.90;;;;;;;4.92;80.78;97145.10;105143;1306;26131;-76
2022/10/21 00:58:12;;;;;;;8.20;5.90;;;;;;;4.98;80.93;97141.45;105141;1305;22541;-76
2022/10/21 01:00:43;;;;;;;9.60;5.70;;;;;;;5.02;81.08;97138.90;105234;1305;22491;-76
2022/10/21 01:03:14;;;;;;;6.90;5.50;;;;;;;5.05;81.05;97134.60;105186;1305;25577;-76
2022/10/21 01:05:46;;;;;;;7.90;5.50;;;;;;;5.02;80.69;97132.14;105108;1289;22479;-76
2022/10/21 01:08:18;;;;;;;7.80;5.50;;;;;;;5.01;80.78;97124.69;105183;1304;22476;-76
2022/10/21 01:10:49;;;;;;;10.00;5.90;;;;;;;5.02;80.98;97120.94;105178;1281;22497;-76
2022/10/21 01:13:31;;;;;;;8.10;6.10;;;;;;;5.01;80.71;97119.39;105213;1295;22474;-76
2022/10/21 01:16:10;;;;;;;8.60;6.40;;;;;;;5.00;80.76;97120.05;105170;1306;24436;-77
2022/10/21 01:18:49;;;;;;;9.30;5.70;;;;;;;5.10;80.83;97115.16;105160;1297;22859;-76
2022/10/21 01:21:36;;;;;;;7.70;5.70;;;;;;;5.15;80.94;97109.02;105231;1283;25205;-76
2022/10/21 01:24:34;;;;;;;8.00;5.60;;;;;;;5.17;80.75;97104.95;105175;1304;24230;-77
2022/10/21 01:27:17;;;;;;;6.60;5.20;;;;;;;5.13;80.57;97102.20;105114;1304;37517;-77
2022/10/21 01:30:18;;;;;;;7.70;5.80;;;;;;;5.10;80.70;97103.08;105181;1282;25383;-77
2022/10/21 01:33:06;;;;;;;8.80;5.60;;;;;;;5.07;80.86;97101.98;105023;1281;194447;-76
2022/10/21 01:35:44;;;;;;;8.40;5.30;;;;;;;5.04;80.70;97102.11;105154;1306;23058;-76
2022/10/21 01:38:24;;;;;;;7.50;5.60;;;;;;;5.04;80.98;97096.53;105034;1293;23012;-76
2022/10/21 01:41:01;;;;;;;6.90;4.00;;;;;;;5.18;81.40;97094.14;105131;1306;22931;-76
2022/10/21 01:43:39;;;;;;;7.70;5.30;;;;;;;5.36;81.29;97095.78;105124;1288;22478;-77
2022/10/21 01:46:17;;;;;;;9.40;5.50;;;;;;;5.37;81.00;97103.95;105048;1297;22467;-77
2022/10/21 01:48:52;;;;;;;8.40;5.80;;;;;;;5.36;81.03;97107.27;105145;1306;22467;-77
2022/10/21 01:51:27;;;;;;;8.50;6.30;;;;;;;5.33;80.87;97108.23;105093;1288;22470;-76
2022/10/21 01:54:03;;;;;;;7.20;5.60;;;;;;;5.27;80.59;97104.23;105085;1291;22497;-76
2022/10/21 01:56:36;;;;;;;6.70;5.00;;;;;;;5.20;80.62;97105.81;105146;1306;22479;-76
2022/10/21 01:59:13;;;;;;;7.50;5.30;;;;;;;5.17;80.94;97107.48;105141;1298;22862;-76
2022/10/21 02:01:46;;;;;;;7.10;5.20;;;;;;;5.15;81.16;97110.08;105179;1304;24290;-76
2022/10/21 02:04:18;;;;;;;8.00;4.40;;;;;;;5.16;81.34;97111.19;105186;1301;25354;-76
2022/10/21 02:06:49;;;;;;;7.80;5.50;;;;;;;5.19;81.33;97114.58;105076;1304;26086;-76
2022/10/21 02:09:20;;;;;;;7.20;4.00;;;;;;;5.21;81.42;97118.10;105083;1298;22954;-76
2022/10/21 02:11:56;;;;;;;8.50;6.20;;;;;;;5.21;81.39;97109.38;105103;1306;22454;-77
2022/10/21 02:14:34;;;;;;;9.50;6.00;;;;;;;5.17;81.41;97112.63;105086;1288;23821;-76
2022/10/21 02:17:06;;;;;;;8.40;5.70;;;;;;;5.13;81.60;97110.20;105067;1306;23422;-76
2022/10/21 02:19:38;;;;;;;10.50;6.30;;;;;;;5.14;81.61;97105.41;105103;1306;22489;-77
2022/10/21 02:22:15;;;;;;;8.30;5.70;;;;;;;5.07;81.60;97103.55;105113;1306;24856;-76
2022/10/21 02:24:53;;;;;;;8.50;5.70;;;;;;;5.01;81.45;97107.88;105096;1306;24990;-76
2022/10/21 02:27:25;;;;;;;9.00;5.60;;;;;;;5.02;81.66;97110.73;105059;1306;23802;-76
2022/10/21 02:30:02;;;;;;;5.90;4.30;;;;;;;5.08;81.89;97107.82;105094;1298;25224;-76
2022/10/21 02:32:39;;;;;;;8.80;5.70;;;;;;;5.11;81.83;97106.36;105086;1288;23812;-77
2022/10/21 02:35:22;;;;;;;7.90;4.60;;;;;;;5.12;81.60;97099.08;105103;1306;22477;-76
2022/10/21 02:38:02;;;;;;;7.90;5.10;;;;;;;5.15;81.46;97096.77;105080;1287;25378;-76
2022/10/21 02:40:38;;;;;;;8.20;6.10;;;;;;;5.18;81.43;97097.24;105102;1300;24299;-76
2022/10/21 02:43:15;;;;;;;9.00;5.80;;;;;;;5.23;81.23;97088.95;105093;1294;23173;-77
2022/10/21 02:45:48;;;;;;;7.50;5.30;;;;;;;5.26;81.13;97085.91;105027;1306;25252;-76
2022/10/21 02:48:19;;;;;;;8.80;5.60;;;;;;;5.23;80.96;97086.39;105089;1306;22496;-76
2022/10/21 02:50:53;;;;;;;7.40;5.30;;;;;;;5.28;80.90;97086.16;105076;1298;22772;-76
2022/10/21 02:53:24;;;;;;;9.40;5.60;;;;;;;5.27;80.86;97089.35;105110;1287;22464;-76
2022/10/21 02:55:55;;;;;;;6.40;5.60;;;;;;;5.24;80.73;97089.70;105039;1288;26561;-76
2022/10/21 02:58:26;;;;;;;8.60;5.00;;;;;;;5.25;80.44;97084.91;105112;1306;25313;-77
2022/10/21 03:00:57;;;;;;;6.70;4.90;;;;;;;5.31;80.59;97075.76;105103;1294;25252;-77
2022/10/21 03:03:29;;;;;;;7.50;5.60;;;;;;;5.39;80.38;97074.03;105094;1306;24214;-77
2022/10/21 03:06:01;;;;;;;8.20;5.00;;;;;;;5.42;80.15;97068.02;105084;1304;22487;-77
2022/10/21 03:08:32;;;;;;;6.60;4.00;;;;;;;5.45;79.99;97067.60;105214;1304;22475;-77
2022/10/21 03:11:03;;;;;;;6.70;4.50;;;;;;;5.56;79.66;97068.18;105220;1294;22543;-77
2022/10/21 03:13:34;;;;;;;6.50;3.20;;;;;;;5.61;79.24;97060.38;105187;1304;22460;-77
2022/10/21 03:16:09;;;;;;;5.10;3.70;;;;;;;5.60;78.99;97062.58;105124;1303;22482;-77
2022/10/21 03:18:40;;;;;;;7.60;4.90;;;;;;;5.60;78.88;97067.58;105154;1289;24983;-77
2022/10/21 03:21:11;;;;;;;7.00;4.80;;;;;;;5.61;78.90;97065.17;105098;1306;22531;-77
2022/10/21 03:23:42;;;;;;;9.30;5.90;;;;;;;5.60;78.48;97059.16;105092;1306;25530;-77
2022/10/21 03:26:13;;;;;;;6.80;5.40;;;;;;;5.58;78.50;97059.75;105063;1306;22480;-77
2022/10/21 03:28:44;;;;;;;6.20;5.10;;;;;;;5.57;78.38;97058.27;105087;1306;23728;-77
2022/10/21 03:31:15;;;;;;;8.10;5.60;;;;;;;5.56;78.44;97055.20;105095;1283;22465;-77
2022/10/21 03:33:47;;;;;;;6.60;4.80;;;;;;;5.54;78.31;97053.58;105097;1298;22494;-77
2022/10/21 03:36:18;;;;;;;7.30;5.70;;;;;;;5.51;78.30;97049.23;105039;1294;24062;-77
2022/10/21 03:38:49;;;;;;;8.30;5.90;;;;;;;5.55;78.45;97052.71;105096;1298;23896;-77
2022/10/21 03:41:20;;;;;;;7.20;5.00;;;;;;;5.57;78.43;97049.22;105079;1304;23225;-77
2022/10/21 03:43:51;;;;;;;8.00;5.70;;;;;;;5.62;78.41;97049.35;105081;1305;22762;-77
2022/10/21 03:46:22;;;;;;;9.60;6.10;;;;;;;5.62;78.10;97044.92;105059;1298;25232;-77
2022/10/21 03:48:54;;;;;;;8.20;6.10;;;;;;;5.59;78.14;97040.21;105087;1298;25307;-77
2022/10/21 03:51:25;;;;;;;6.90;4.30;;;;;;;5.59;78.06;97038.84;105112;1298;22477;-76
2022/10/21 03:53:56;;;;;;;9.20;6.40;;;;;;;5.67;78.00;97036.36;105104;1284;22545;-76
2022/10/21 03:56:27;;;;;;;6.60;5.50;;;;;;;5.71;77.57;97042.90;105019;1303;25216;-76
2022/10/21 03:59:00;;;;;;;7.00;5.40;;;;;;;5.66;77.47;97042.88;105117;1306;25369;-76
2022/10/21 04:01:31;;;;;;;8.10;5.60;;;;;;;5.63;77.41;97045.44;105106;1303;24340;-76
2022/10/21 04:04:03;;;;;;;7.80;5.50;;;;;;;5.61;77.30;97044.23;105113;1291;22495;-76
2022/10/21 04:06:34;;;;;;;10.60;5.40;;;;;;;5.52;77.16;97042.92;105070;1288;22524;-76
2022/10/21 04:09:05;;;;;;;9.00;6.20;;;;;;;5.49;77.22;97045.78;105084;1298;24263;-76
2022/10/21 04:11:36;;;;;;;9.80;6.60;;;;;;;5.47;77.39;97045.23;105098;1284;23799;-76
2022/10/21 04:14:07;;;;;;;10.30;5.70;;;;;;;5.42;77.24;97044.20;105088;1285;22474;-76
2022/10/21 04:16:38;;;;;;;7.50;6.20;;;;;;;5.42;77.13;97037.95;105054;1287;22519;-76
2022/10/21 04:19:15;;;;;;;8.20;4.80;;;;;;;5.37;77.05;97033.39;105085;1292;22505;-76
2022/10/21 04:21:46;;;;;;;6.40;5.20;;;;;;;5.27;77.04;97029.00;105129;1298;22495;-76
2022/10/21 04:24:17;;;;;;;9.40;6.20;;;;;;;5.24;77.25;97026.48;105075;1295;22512;-76
2022/10/21 04:26:49;;;;;;;9.10;5.60;;;;;;;5.18;77.27;97022.98;105067;1299;22472;-76
2022/10/21 04:29:20;;;;;;;8.40;6.10;;;;;;;5.14;77.52;97022.37;105102;1305;23298;-77
2022/10/21 04:31:52;;;;;;;9.20;6.10;;;;;;;5.13;77.46;97017.62;105072;1284;22473;-76
2022/10/21 04:34:24;;;;;;;7.20;5.50;;;;;;;5.07;77.47;97010.20;105099;1304;22485;-76
2022/10/21 04:36:55;;;;;;;7.70;5.90;;;;;;;5.04;77.64;96998.31;105034;1283;22488;-76
2022/10/21 04:39:27;;;;;;;7.90;5.60;;;;;;;5.07;77.84;96996.06;105117;1289;22480;-76
2022/10/21 04:41:58;;;;;;;8.40;6.00;;;;;;;5.13;77.44;96986.61;105116;1294;22605;-77
2022/10/21 04:44:30;;;;;;;8.40;5.60;;;;;;;5.15;77.49;96978.08;105094;1304;22474;-77
2022/10/21 04:47:02;;;;;;;8.30;5.70;;;;;;;5.17;77.36;96971.64;105086;1303;22449;-76
2022/10/21 04:49:33;;;;;;;10.50;5.80;;;;;;;5.15;77.23;96960.64;105097;1303;22479;-76
2022/10/21 04:52:05;;;;;;;8.10;5.60;;;;;;;5.17;77.31;96951.53;105064;1298;22485;-77
2022/10/21 04:54:36;;;;;;;8.20;5.80;;;;;;;5.22;77.39;96953.04;105105;1290;24263;-76
2022/10/21 04:57:07;;;;;;;9.20;6.10;;;;;;;5.30;77.39;96957.92;105150;1306;22571;-76
2022/10/21 04:59:38;;;;;;;8.70;5.80;;;;;;;5.27;77.11;96957.86;105186;1304;22513;-76
2022/10/21 05:02:09;;;;;;;8.60;5.70;;;;;;;5.28;77.30;96961.25;105183;1298;22468;-76
2022/10/21 05:04:41;;;;;;;8.10;5.40;;;;;;;5.27;77.11;96963.98;105174;1298;22541;-76
2022/10/21 05:07:12;;;;;;;6.20;4.70;;;;;;;5.23;77.37;96965.09;105072;1291;23453;-76
2022/10/21 05:09:45;;;;;;;6.30;4.80;;;;;;;5.20;77.56;96969.06;105196;1304;22591;-76
2022/10/21 05:12:17;;;;;;;7.30;5.50;;;;;;;5.14;77.42;96977.16;105168;1293;23748;-76
2022/10/21 05:14:48;;;;;;;9.90;5.60;;;;;;;5.10;77.62;96974.59;105170;1301;22556;-76
2022/10/21 05:17:22;;;;;;;5.40;4.20;;;;;;;5.09;77.63;96974.20;105129;1303;36480;-76
2022/10/21 05:19:54;;;;;;;8.80;5.40;;;;;;;5.08;77.73;96973.98;105177;1305;22523;-76
2022/10/21 05:22:25;;;;;;;6.50;5.40;;;;;;;5.09;77.60;96978.77;105176;1304;22468;-76
2022/10/21 05:24:56;;;;;;;7.60;5.30;;;;;;;5.12;77.78;96971.67;105220;1305;22505;-77
2022/10/21 05:27:28;;;;;;;8.50;5.90;;;;;;;5.17;77.79;96968.87;105149;1297;25244;-76
2022/10/21 05:29:59;;;;;;;8.90;5.40;;;;;;;5.24;77.88;96964.86;105174;1304;24428;-76
2022/10/21 05:32:35;;;;;;;7.90;5.70;;;;;;;5.27;77.62;96956.30;105156;1289;22481;-76
2022/10/21 05:35:08;;;;;;;5.90;4.30;;;;;;;5.35;77.77;96960.27;105221;1285;22474;-76
2022/10/21 05:37:39;;;;;;;7.30;5.40;;;;;;;5.49;77.46;96958.24;105106;1284;22481;-76
2022/10/21 05:40:12;;;;;;;7.50;5.80;;;;;;;5.82;77.23;96960.48;105079;1292;22505;-77
2022/10/21 05:42:44;;;;;;;7.00;5.40;;;;;;;6.21;76.93;96967.02;105112;1303;22501;-77
2022/10/21 05:45:18;;;;;;;7.80;5.10;;;;;;;6.68;76.19;96972.02;105078;1298;25748;-77
2022/10/21 05:47:50;;;;;;;7.10;5.30;;;;;;;7.32;75.36;96972.96;105135;1290;22491;-77
2022/10/21 05:50:21;;;;;;;7.20;4.80;;;;;;;7.80;73.89;96971.90;105174;1288;22476;-77
2022/10/21 05:52:52;;;;;;;5.20;4.40;;;;;;;8.03;72.62;96975.64;105181;1298;25500;-77
2022/10/21 05:55:24;;;;;;;6.90;4.80;;;;;;;8.48;71.89;96978.65;105201;1288;22484;-77
2022/10/21 05:57:56;;;;;;;6.00;4.70;;;;;;;8.83;70.40;96983.83;105100;1295;39675;-77
2022/10/21 06:00:27;;;;;;;6.60;4.70;;;;;;;8.97;69.17;96989.96;105211;1304;22516;-77
2022/10/21 06:02:58;;;;;;;6.90;4.40;;;;;;;9.36;68.43;96982.58;105228;1304;24256;-77
2022/10/21 06:05:29;;;;;;;5.40;4.60;;;;;;;9.65;67.13;96982.38;105229;1304;22464;-77
2022/10/21 06:08:01;;;;;;;8.10;5.20;;;;;;;9.74;65.96;96995.00;105175;1298;24853;-77
2022/10/21 06:10:32;;;;;;;6.40;4.50;;;;;;;9.72;65.76;97000.70;105208;1304;22623;-77
2022/10/21 06:13:03;;;;;;;5.40;4.40;;;;;;;10.06;65.50;97000.73;105150;1298;22949;-77
2022/10/21 06:15:34;;;;;;;6.50;4.40;;;;;;;10.39;64.82;97004.14;105136;1304;39416;-78
2022/10/21 06:18:05;;;;;;;5.50;4.50;;;;;;;10.68;63.07;96993.65;105077;1294;22572;-77
2022/10/21 06:20:36;;;;;;;5.20;4.20;;;;;;;10.81;61.42;96984.65;105105;1298;22504;-77
2022/10/21 06:23:07;;;;;;;5.30;4.30;;;;;;;11.02;61.78;96978.59;105117;1298;22517;-77
2022/10/21 06:25:41;;;;;;;5.60;4.80;;;;;;;11.94;62.86;96975.56;105046;1306;26039;-78
2022/10/21 06:28:12;;;;;;;7.00;4.20;;;;;;;12.93;61.70;96977.04;105181;1304;22462;-78
2022/10/21 06:30:43;;;;;;;6.20;4.50;;;;;;;13.97;60.75;96975.60;105148;1304;25501;-78
2022/10/21 06:33:14;;;;;;;5.20;4.70;;;;;;;14.92;58.63;96972.59;105218;1281;24830;-79
2022/10/21 06:35:45;;;;;;;6.40;4.20;;;;;;;15.39;57.39;96973.83;105142;1298;23829;-78
2022/10/21 06:38:17;;;;;;;5.30;4.20;;;;;;;15.57;54.51;96966.94;105197;1298;22477;-79
2022/10/21 06:40:48;;;;;;;5.70;4.50;;;;;;;15.68;54.64;96969.12;105228;1292;23944;-79
2022/10/21 06:43:20;;;;;;;4.70;4.20;;;;;;;15.68;52.93;96965.10;105190;1291;22686;-80
2022/10/21 06:45:52;;;;;;;5.30;4.10;;;;;;;15.50;52.86;96973.71;105099;1289;25421;-79
2022/10/21 06:48:23;;;;;;;5.40;4.40;;;;;;;15.20;52.02;96980.80;105155;1304;22477;-79
2022/10/21 06:50:58;;;;;;;6.00;4.60;;;;;;;13.87;51.15;96991.27;105231;1304;22462;-79
2022/10/21 06:53:30;;;;;;;5.10;4.20;;;;;;;12.99;52.44;97001.78;105213;1282;23173;-79
2022/10/21 06:56:06;;;;;;;4.90;4.00;;;;;;;11.96;52.45;97009.34;105177;1290;22488;-78
2022/10/21 06:58:42;;;;;;;4.40;3.90;;;;;;;10.81;54.29;97016.04;105274;1302;22478;-79
2022/10/21 07:01:15;;;;;;;6.10;4.80;;;;;;;10.23;55.60;97017.85;105154;1304;22972;-78
2022/10/21 07:03:47;;;;;;;6.50;4.70;;;;;;;9.88;57.00;97011.59;105190;1304;22562;-78
2022/10/21 07:06:18;;;;;;;6.60;4.50;;;;;;;9.74;57.95;97018.45;105120;1304;25305;-78
2022/10/21 07:08:50;;;;;;;7.40;4.90;;;;;;;9.58;58.41;97012.42;105176;1284;24114;-78
2022/10/21 07:11:21;;;;;;;7.90;5.70;;;;;;;9.28;59.42;97003.98;105263;1294;26442;-78
2022/10/21 07:13:52;;;;;;;8.20;5.00;;;;;;;9.27;60.21;97007.52;105199;1304;22536;-78
2022/10/21 07:16:26;;;;;;;7.30;4.60;;;;;;;9.21;60.16;97009.10;105171;1282;22490;-78
2022/10/21 07:18:58;;;;;;;7.80;5.00;;;;;;;8.90;60.62;97008.02;105144;1281;22477;-78
2022/10/21 07:21:31;;;;;;;8.00;5.70;;;;;;;8.75;61.51;97006.93;105194;1303;22490;-78
2022/10/21 07:24:02;;;;;;;8.50;5.60;;;;;;;8.79;61.97;97002.55;105181;1304;22854;-78
2022/10/21 07:26:37;;;;;;;8.90;8.10;;;;;;;9.17;62.18;96998.17;105115;1306;22525;-78
2022/10/21 07:29:08;;;;;;;7.30;5.50;;;;;;;9.74;61.62;96999.80;105166;1304;22485;-78
2022/10/21 07:31:39;;;;;;;6.70;4.50;;;;;;;9.97;61.00;97002.05;105197;1305;22497;-78
2022/10/21 07:34:13;;;;;;;5.90;4.60;;;;;;;9.95;60.51;97002.53;105198;1303;22485;-78
2022/10/21 07:36:47;;;;;;;7.30;5.50;;;;;;;9.74;60.40;97004.48;105113;1281;25269;-78
2022/10/21 07:39:20;;;;;;;6.60;5.10;;;;;;;10.02;60.78;97006.13;105166;1304;22477;-78
2022/10/21 07:41:56;;;;;;;6.80;4.10;;;;;;;10.12;60.28;97006.04;105118;1306;22489;-78
2022/10/21 07:44:28;;;;;;;7.10;5.00;;;;;;;9.93;59.68;97007.29;105096;1298;22493;-78
2022/10/21 07:47:00;;;;;;;7.30;5.10;;;;;;;9.47;60.08;97014.42;105097;1306;25266;-78
2022/10/21 07:49:31;;;;;;;5.50;4.60;;;;;;;9.11;60.67;97000.01;105105;1291;26872;-78
2022/10/21 07:52:02;;;;;;;9.10;5.40;;;;;;;9.01;61.28;96994.62;105131;1298;22569;-78
2022/10/21 07:54:36;;;;;;;6.60;5.20;;;;;;;9.45;61.34;96991.39;105118;1281;22501;-78
2022/10/21 07:57:07;;;;;;;7.80;5.30;;;;;;;9.95;60.50;96980.39;105113;1304;22491;-78
2022/10/21 07:59:38;;;;;;;7.80;5.40;;;;;;;10.38;59.72;96984.31;105164;1304;22479;-79
2022/10/21 08:02:12;;;;;;;6.50;5.30;;;;;;;11.29;59.67;96973.88;105170;1288;23934;-79
2022/10/21 08:04:43;;;;;;;8.10;5.20;;;;;;;12.32;57.95;96964.73;105160;1289;25082;-79
2022/10/21 08:07:17;;;;;;;5.60;5.00;;;;;;;12.92;55.83;96965.81;105063;1282;24252;-79
2022/10/21 08:09:48;;;;;;;7.20;5.00;;;;;;;13.54;54.35;96965.42;105091;1306;22472;-79
2022/10/21 08:12:19;;;;;;;7.40;5.00;;;;;;;13.67;53.19;96971.10;105101;1306;22501;-79
2022/10/21 08:14:50;;;;;;;7.70;5.30;;;;;;;13.64;52.34;96968.01;105081;1303;22465;-79
2022/10/21 08:17:21;;;;;;;7.20;5.30;;;;;;;13.36;52.19;96964.61;105088;1284;23269;-79
2022/10/21 08:19:52;;;;;;;6.20;4.90;;;;;;;13.53;53.19;96956.07;105092;1291;22468;-79
2022/10/21 08:22:24;;;;;;;5.00;4.30;;;;;;;13.76;52.82;96958.89;105094;1291;22462;-79
2022/10/21 08:24:55;;;;;;;5.50;4.40;;;;;;;13.84;52.49;96958.85;105113;1299;22784;-79
2022/10/21 08:27:26;;;;;;;6.00;4.50;;;;;;;13.46;51.83;96954.25;105056;1291;25243;-79
2022/10/21 08:29:57;;;;;;;5.70;4.70;;;;;;;12.93;52.28;96953.34;105117;1291;25012;-78
2022/10/21 08:32:28;;;;;;;7.70;4.80;;;;;;;12.76;52.19;96956.59;105095;1305;22471;-79
2022/10/21 08:35:01;;;;;;;7.70;5.00;;;;;;;12.67;52.74;96945.41;105113;1306;22464;-78
2022/10/21 08:37:34;;;;;;;5.60;4.30;;;;;;;12.54;53.08;96941.23;105163;1291;25172;-79
2022/10/21 08:40:06;;;;;;;6.80;4.40;;;;;;;12.58;53.38;96936.36;105172;1303;22462;-79
2022/10/21 08:42:41;;;;;;;5.60;4.50;;;;;;;12.43;53.06;96936.40;105257;1304;22472;-78
2022/10/21 08:45:21;;;;;;;8.30;4.50;;;;;;;12.29;53.42;96928.58;105126;1288;22504;-78
2022/10/21 08:47:57;;;;;;;7.00;4.30;;;;;;;12.29;53.52;96929.80;105158;1306;22661;-79
2022/10/21 08:50:41;;;;;;;6.60;4.90;;;;;;;12.16;53.49;96935.33;105217;1289;25483;-79
2022/10/21 08:53:20;;;;;;;5.20;3.80;;;;;;;11.89;53.44;96931.58;105193;1291;22467;-79
2022/10/21 08:55:57;;;;;;;7.40;4.80;;;;;;;11.75;53.84;96932.79;105151;1306;26324;-78
2022/10/21 08:58:28;;;;;;;9.10;4.40;;;;;;;11.67;53.90;96930.81;105193;1298;25224;-79
2022/10/21 09:01:05;;;;;;;5.20;3.90;;;;;;;11.63;54.76;96931.85;105178;1304;22491;-79
2022/10/21 09:03:46;;;;;;;6.90;4.00;;;;;;;11.82;55.16;96924.09;105193;1290;23906;-79
2022/10/21 09:06:28;;;;;;;5.40;4.00;;;;;;;11.98;55.15;96922.69;105195;1303;22528;-79
2022/10/21 09:09:07;;;;;;;6.30;4.20;;;;;;;12.14;55.58;96916.59;105194;1288;24957;-79
2022/10/21 09:11:49;;;;;;;5.20;3.90;;;;;;;12.22;55.07;96909.42;105234;1304;22477;-79
2022/10/21 09:14:40;;;;;;;5.10;3.80;;;;;;;12.13;54.28;96898.30;105233;1288;22471;-79
2022/10/21 09:17:26;;;;;;;5.50;4.10;;;;;;;12.00;54.43;96895.99;105166;1304;23210;-79
2022/10/21 09:20:04;;;;;;;7.80;3.50;;;;;;;12.16;54.73;96894.57;105219;1305;24237;-79
2022/10/21 09:22:51;;;;;;;6.00;3.90;;;;;;;12.36;54.67;96892.08;105223;1296;22473;-79
2022/10/21 09:25:32;;;;;;;6.00;4.30;;;;;;;12.44;53.93;96894.29;105156;1304;24238;-79
2022/10/21 09:28:12;;;;;;;5.30;3.70;;;;;;;12.40;53.42;96895.54;105084;1303;31934;-79
2022/10/21 09:30:44;;;;;;;4.70;3.90;;;;;;;12.28;53.58;96890.25;105107;1299;24199;-79
2022/10/21 09:33:21;;;;;;;5.40;3.50;;;;;;;12.20;52.77;96886.34;105096;1304;22778;-79
2022/10/21 09:35:59;;;;;;;6.80;4.50;;;;;;;12.01;53.09;96886.16;105061;1282;25357;-78
2022/10/21 09:38:39;;;;;;;4.70;3.40;;;;;;;12.07;53.12;96885.13;105049;1298;22811;-79
2022/10/21 09:41:16;;;;;;;7.20;3.90;;;;;;;12.00;51.91;96883.88;105074;1281;23924;-79
2022/10/21 09:43:50;;;;;;;4.70;3.90;;;;;;;12.02;52.26;96887.41;105118;1291;22555;-78
2022/10/21 09:46:24;;;;;;;6.10;4.30;;;;;;;12.30;52.36;96881.77;105081;1306;25295;-78
2022/10/21 09:48:58;;;;;;;5.80;4.20;;;;;;;12.61;52.44;96876.21;105150;1306;25467;-78
2022/10/21 09:51:32;;;;;;;6.40;4.10;;;;;;;12.74;51.83;96867.17;105110;1284;25288;-78
2022/10/21 09:54:11;;;;;;;7.00;4.30;;;;;;;12.86;52.00;96866.65;105128;1281;22545;-78
2022/10/21 09:56:48;;;;;;;6.30;4.40;;;;;;;12.88;51.21;96864.98;105085;1295;22473;-78
2022/10/21 09:59:21;;;;;;;7.80;5.10;;;;;;;12.67;51.27;96866.46;105117;1306;22486;-78
2022/10/21 10:01:56;;;;;;;6.70;4.60;;;;;;;12.50;51.82;96863.36;105150;1306;22484;-78
2022/10/21 10:04:31;;;;;;;7.20;4.20;;;;;;;12.40;52.37;96865.92;105084;1282;25377;-78
2022/10/21 10:07:19;;;;;;;5.90;4.00;;;;;;;12.35;52.66;96864.59;105104;1291;23623;-78
2022/10/21 10:09:50;;;;;;;6.20;4.30;;;;;;;12.19;52.14;96861.63;105217;1283;22509;-78
2022/10/21 10:12:25;;;;;;;6.00;4.20;;;;;;;12.07;52.54;96863.92;105170;1306;25261;-78
2022/10/21 10:14:56;;;;;;;4.70;3.60;;;;;;;12.03;52.87;96865.41;105201;1298;22872;-78
2022/10/21 10:17:34;;;;;;;4.60;3.20;;;;;;;12.06;52.52;96865.11;105128;1304;22520;-78
2022/10/21 10:20:18;;;;;;;5.90;3.40;;;;;;;12.06;52.62;96867.34;105184;1290;22622;-78
2022/10/21 10:23:09;;;;;;;4.80;3.60;;;;;;;12.01;52.36;96866.70;105227;1304;22521;-78
2022/10/21 10:25:39;;;;;;;;;;;;;;;12.00;52.79;96857.89;105188;1292;22473;-78
2022/10/21 10:28:24;;;;;;;5.70;4.00;;;;;;;12.01;52.89;96848.80;105119;1298;22693;-78
2022/10/21 10:30:57;;;;;;;5.30;3.80;;;;;;;12.03;53.24;96835.75;105134;1300;23937;-78
2022/10/21 10:33:31;;;;;;;5.30;3.60;;;;;;;12.08;53.31;96831.59;105093;1297;22479;-78
2022/10/21 10:36:04;;;;;;;5.30;3.50;;;;;;;12.03;52.90;96825.59;105170;1304;22458;-78
2022/10/21 10:38:41;;;;;;;6.30;3.80;;;;;;;11.98;53.06;96819.94;105214;1285;22493;-78
2022/10/21 10:41:15;;;;;;;7.10;3.30;;;;;;;11.97;53.07;96824.38;105146;1291;25925;-78
2022/10/21 10:43:51;;;;;;;4.80;3.20;;;;;;;12.08;53.37;96814.11;105213;1298;22564;-78
2022/10/21 10:46:29;;;;;;;4.30;3.00;;;;;;;12.16;53.27;96809.73;105201;1296;22661;-78
2022/10/21 10:49:16;;;;;;;5.20;3.30;;;;;;;12.24;52.87;96812.92;105215;1292;22959;-78
2022/10/21 10:52:03;;;;;;;5.90;3.30;;;;;;;12.22;52.24;96813.20;105154;1306;22691;-77
2022/10/21 10:54:37;;;;;;;4.70;3.50;;;;;;;12.16;52.54;96807.13;105225;1298;22448;-77
2022/10/21 10:57:15;;;;;;;6.50;4.00;;;;;;;12.12;52.55;96803.98;105082;1298;25806;-77
2022/10/21 10:59:51;;;;;;;5.50;3.80;;;;;;;12.06;52.27;96806.64;105134;1306;22480;-78
2022/10/21 11:02:32;;;;;;;4.10;2.90;;;;;;;12.10;53.07;96807.24;105082;1284;22471;-78
2022/10/21 11:05:22;;;;;;;4.10;3.30;;;;;;;12.13;51.90;96798.03;105154;1282;23855;-78
2022/10/21 11:07:56;;;;;;;6.20;3.40;;;;;;;12.12;50.93;96787.94;105048;1306;25406;-77
2022/10/21 11:10:35;;;;;;;6.00;3.60;;;;;;;12.04;51.16;96777.13;105148;1298;25711;-78
2022/10/21 11:13:10;;;;;;;5.60;3.70;;;;;;;12.00;52.04;96769.46;105143;1306;22662;-78
2022/10/21 11:15:58;;;;;;;5.70;3.90;;;;;;;12.02;52.26;96769.50;105086;1306;25239;-77
2022/10/21 11:18:37;;;;;;;5.20;3.90;;;;;;;12.04;52.76;96757.09;105126;1306;25614;-78
2022/10/21 11:21:22;;;;;;;4.40;3.50;;;;;;;12.03;52.51;96752.20;105152;1299;22468;-78
2022/10/21 11:24:09;;;;;;;4.10;3.00;;;;;;;12.01;52.82;96738.52;105117;1306;22495;-78
2022/10/21 11:26:51;;;;;;;5.60;3.00;;;;;;;12.04;52.44;96732.75;105068;1302;22875;-77
2022/10/21 11:29:34;;;;;;;4.90;2.80;;;;;;;12.06;51.97;96728.05;105214;1291;23870;-77
2022/10/21 11:32:19;;;;;;;4.40;2.50;;;;;;;12.05;52.03;96725.39;105192;1304;22505;-78
2022/10/21 11:35:00;;;;;;;4.80;3.40;;;;;;;12.01;52.80;96721.84;105202;1298;22472;-77
2022/10/21 11:37:57;;;;;;;6.60;4.10;;;;;;;12.04;53.28;96715.63;105193;1304;22483;-77
2022/10/21 11:40:37;;;;;;;6.20;4.00;;;;;;;12.02;53.66;96705.73;105167;1300;22486;-77
2022/10/21 11:43:24;;;;;;;5.40;4.00;;;;;;;12.00;54.32;96694.87;105208;1305;22496;-77
2022/10/21 11:46:07;;;;;;;5.40;4.10;;;;;;;12.00;54.66;96682.33;105153;1281;26501;-77
2022/10/21 11:49:00;;;;;;;5.00;3.70;;;;;;;12.03;54.87;96681.37;105133;1305;22609;-77
2022/10/21 11:51:46;;;;;;;6.50;4.20;;;;;;;12.02;55.00;96685.47;105126;1283;25235;-77
2022/10/21 11:54:42;;;;;;;6.60;4.00;;;;;;;12.03;55.16;96674.88;105111;1305;24015;-77
2022/10/21 11:57:23;;;;;;;6.90;3.90;;;;;;;12.06;54.90;96673.14;105033;1292;23851;-77
2022/10/21 12:00:00;;;;;;;;;;;;;;;12.12;54.98;96672.23;105134;1306;22774;-77
2022/10/21 12:02:40;;;;;;;4.20;3.20;;;;;;;12.18;54.83;96671.55;105166;1284;23269;-77
2022/10/21 12:05:22;;;;;;;4.80;3.30;;;;;;;12.23;53.91;96671.68;105118;1305;27118;-77